createdAt,value
2018-09-28T00:00:46.833Z,0
2018-09-28T00:01:56.461Z,0
2018-09-28T00:03:06.349Z,0
2018-09-28T00:04:15.731Z,0
2018-09-28T00:05:25.075Z,0
2018-09-28T00:06:35.322Z,0
2018-09-28T00:07:45.489Z,0
2018-09-28T00:08:54.832Z,0
2018-09-28T00:10:04.771Z,0
2018-09-28T00:11:13.869Z,0
2018-09-28T00:12:23.209Z,0
2018-09-28T00:13:32.836Z,0
2018-09-28T00:14:42.998Z,0
2018-09-28T00:15:53.156Z,0
2018-09-28T00:17:03.300Z,0
2018-09-28T00:18:13.477Z,0
2018-09-28T00:19:23.680Z,0
2018-09-28T00:20:33.881Z,0
2018-09-28T00:21:43.495Z,0
2018-09-28T00:22:53.439Z,0
2018-09-28T00:24:02.749Z,0
2018-09-28T00:25:12.959Z,0
2018-09-28T00:26:22.852Z,0
2018-09-28T00:27:32.745Z,0
2018-09-28T00:28:42.362Z,0
2018-09-28T00:29:52.288Z,0
2018-09-28T00:31:01.902Z,0
2018-09-28T00:32:12.071Z,0
2018-09-28T00:33:22.060Z,0
2018-09-28T00:34:32.222Z,0
2018-09-28T00:35:42.140Z,0
2018-09-28T00:36:52.112Z,0
2018-09-28T00:38:02.003Z,0
2018-09-28T00:39:11.351Z,0
2018-09-28T00:40:21.298Z,0
2018-09-28T00:41:31.472Z,0
2018-09-28T00:42:41.117Z,0
2018-09-28T00:43:50.464Z,0
2018-09-28T00:45:00.627Z,0
2018-09-28T00:46:10.859Z,0
2018-09-28T00:47:20.788Z,0
2018-09-28T00:48:30.404Z,0
2018-09-28T00:49:40.332Z,0
2018-09-28T00:50:49.984Z,0
2018-09-28T00:52:00.192Z,0
2018-09-28T00:53:09.844Z,0
2018-09-28T00:54:19.745Z,0
2018-09-28T00:55:29.327Z,0
2018-09-28T00:56:39.219Z,0
2018-09-28T00:57:55.108Z,0
2018-09-28T00:59:04.739Z,0
2018-09-28T01:00:14.867Z,0
2018-09-28T01:01:24.527Z,0
2018-09-28T01:02:34.688Z,0
2018-09-28T01:03:44.313Z,0
2018-09-28T01:04:54.244Z,0
2018-09-28T01:06:03.868Z,0
2018-09-28T01:07:13.213Z,0
2018-09-28T01:08:23.385Z,0
2018-09-28T01:09:32.997Z,0
2018-09-28T01:10:42.881Z,0
2018-09-28T01:11:52.497Z,0
2018-09-28T01:13:02.662Z,0
2018-09-28T01:14:12.612Z,0
2018-09-28T01:15:22.223Z,0
2018-09-28T01:16:32.124Z,0
2018-09-28T01:17:42.013Z,0
2018-09-28T01:18:51.910Z,0
2018-09-28T01:20:02.083Z,0
2018-09-28T01:21:12.181Z,0
2018-09-28T01:22:21.522Z,0
2018-09-28T01:23:31.442Z,0
2018-09-28T01:24:41.356Z,0
2018-09-28T01:25:50.702Z,0
2018-09-28T01:27:00.692Z,0
2018-09-28T01:28:10.300Z,0
2018-09-28T01:29:19.924Z,0
2018-09-28T01:30:29.829Z,0
2018-09-28T01:31:39.484Z,0
2018-09-28T01:32:49.130Z,0
2018-09-28T01:33:59.286Z,0
2018-09-28T01:35:08.936Z,0
2018-09-28T01:36:18.834Z,0
2018-09-28T01:37:28.176Z,0
2018-09-28T01:38:38.348Z,0
2018-09-28T01:39:48.486Z,0
2018-09-28T01:40:58.118Z,0
2018-09-28T01:42:08.020Z,0
2018-09-28T01:43:18.188Z,0
2018-09-28T01:44:27.800Z,0
2018-09-28T01:45:37.971Z,0
2018-09-28T01:46:47.862Z,0
2018-09-28T01:47:57.758Z,0
2018-09-28T01:49:07.706Z,0
2018-09-28T01:50:17.650Z,0
2018-09-28T01:51:27.551Z,0
2018-09-28T01:52:37.755Z,0
2018-09-28T01:53:47.666Z,0
2018-09-28T01:54:58.081Z,0
2018-09-28T01:56:07.906Z,0
2018-09-28T01:57:17.559Z,0
2018-09-28T01:58:27.755Z,0
2018-09-28T01:59:37.579Z,0
2018-09-28T02:00:47.787Z,0
2018-09-28T02:01:57.507Z,0
2018-09-28T02:03:06.852Z,0
2018-09-28T02:04:17.042Z,0
2018-09-28T02:05:26.694Z,0
2018-09-28T02:06:36.585Z,0
2018-09-28T02:07:46.709Z,0
2018-09-28T02:08:57.108Z,0
2018-09-28T02:10:07.091Z,0
2018-09-28T02:11:17.272Z,0
2018-09-28T02:12:27.268Z,0
2018-09-28T02:13:37.328Z,0
2018-09-28T02:14:46.947Z,0
2018-09-28T02:15:57.159Z,0
2018-09-28T02:17:07.402Z,0
2018-09-28T02:18:17.577Z,0
2018-09-28T02:19:27.810Z,0
2018-09-28T02:20:37.697Z,0
2018-09-28T02:21:47.864Z,0
2018-09-28T02:22:57.213Z,0
2018-09-28T02:24:06.836Z,0
2018-09-28T02:25:16.784Z,0
2018-09-28T02:26:26.124Z,0
2018-09-28T02:27:36.328Z,0
2018-09-28T02:28:46.499Z,0
2018-09-28T02:29:55.848Z,0
2018-09-28T02:31:06.266Z,0
2018-09-28T02:32:16.195Z,0
2018-09-28T02:33:25.812Z,0
2018-09-28T02:34:35.157Z,0
2018-09-28T02:35:45.096Z,0
2018-09-28T02:36:54.764Z,0
2018-09-28T02:38:04.952Z,0
2018-09-28T02:39:15.115Z,0
2018-09-28T02:40:24.470Z,0
2018-09-28T02:41:34.365Z,0
2018-09-28T02:42:44.583Z,0
2018-09-28T02:43:54.761Z,0
2018-09-28T02:45:04.657Z,0
2018-09-28T02:46:14.561Z,0
2018-09-28T02:47:24.465Z,0
2018-09-28T02:48:34.458Z,0
2018-09-28T02:49:44.076Z,0
2018-09-28T02:50:53.959Z,0
2018-09-28T02:52:03.577Z,0
2018-09-28T02:53:13.333Z,0
2018-09-28T02:54:23.502Z,0
2018-09-28T02:55:33.395Z,0
2018-09-28T02:56:43.701Z,0
2018-09-28T02:57:53.598Z,0
2018-09-28T02:59:03.487Z,0
2018-09-28T03:00:13.164Z,0
2018-09-28T03:01:22.787Z,0
2018-09-28T03:02:32.995Z,0
2018-09-28T03:03:43.161Z,0
2018-09-28T03:04:53.021Z,0
2018-09-28T03:06:02.734Z,0
2018-09-28T03:07:12.373Z,0
2018-09-28T03:08:22.548Z,0
2018-09-28T03:09:32.768Z,0
2018-09-28T03:10:42.934Z,0
2018-09-28T03:11:52.884Z,0
2018-09-28T03:13:02.835Z,0
2018-09-28T03:14:12.396Z,0
2018-09-28T03:15:21.780Z,0
2018-09-28T03:16:31.946Z,0
2018-09-28T03:17:41.294Z,0
2018-09-28T03:18:51.473Z,0
2018-09-28T03:20:01.652Z,0
2018-09-28T03:21:11.548Z,0
2018-09-28T03:22:20.894Z,0
2018-09-28T03:23:30.242Z,0
2018-09-28T03:24:40.137Z,0
2018-09-28T03:25:50.132Z,0
2018-09-28T03:26:59.904Z,0
2018-09-28T03:28:10.307Z,0
2018-09-28T03:29:20.508Z,0
2018-09-28T03:30:30.132Z,0
2018-09-28T03:31:39.786Z,0
2018-09-28T03:32:49.960Z,0
2018-09-28T03:33:59.887Z,0
2018-09-28T03:35:09.798Z,0
2018-09-28T03:36:19.722Z,0
2018-09-28T03:37:30.165Z,0
2018-09-28T03:38:40.115Z,0
2018-09-28T03:39:49.753Z,0
2018-09-28T03:40:59.967Z,0
2018-09-28T03:42:09.870Z,0
2018-09-28T03:43:20.276Z,0
2018-09-28T03:44:29.890Z,0
2018-09-28T03:45:40.049Z,0
2018-09-28T03:46:49.949Z,0
2018-09-28T03:47:59.570Z,0
2018-09-28T03:49:08.931Z,0
2018-09-28T03:50:19.026Z,0
2018-09-28T03:51:28.669Z,0
2018-09-28T03:52:38.021Z,0
2018-09-28T03:53:48.219Z,0
2018-09-28T03:54:58.117Z,0
2018-09-28T03:56:08.321Z,0
2018-09-28T03:57:18.540Z,0
2018-09-28T03:58:28.437Z,0
2018-09-28T03:59:38.333Z,0
2018-09-28T04:00:48.565Z,0
2018-09-28T04:01:58.246Z,0
2018-09-28T04:03:08.922Z,0
2018-09-28T04:04:19.149Z,0
2018-09-28T04:05:29.348Z,0
2018-09-28T04:06:39.499Z,0
2018-09-28T04:07:49.434Z,0
2018-09-28T04:08:59.324Z,0
2018-09-28T04:10:08.949Z,0
2018-09-28T04:11:18.889Z,0
2018-09-28T04:12:29.052Z,0
2018-09-28T04:13:39.465Z,0
2018-09-28T04:14:49.396Z,0
2018-09-28T04:15:59.922Z,0
2018-09-28T04:17:09.823Z,0
2018-09-28T04:18:19.212Z,0
2018-09-28T04:19:29.111Z,0
2018-09-28T04:20:39.341Z,0
2018-09-28T04:21:49.162Z,0
2018-09-28T04:22:58.820Z,0
2018-09-28T04:24:08.718Z,0
2018-09-28T04:25:18.670Z,0
2018-09-28T04:26:28.835Z,0
2018-09-28T04:27:39.098Z,0
2018-09-28T04:28:48.991Z,0
2018-09-28T04:29:58.873Z,0
2018-09-28T04:31:08.495Z,0
2018-09-28T04:32:18.117Z,0
2018-09-28T04:33:27.742Z,0
2018-09-28T04:34:37.635Z,0
2018-09-28T04:35:47.834Z,0
2018-09-28T04:36:58.044Z,0
2018-09-28T04:38:07.953Z,0
2018-09-28T04:39:17.891Z,0
2018-09-28T04:40:27.536Z,0
2018-09-28T04:41:37.160Z,0
2018-09-28T04:42:46.503Z,0
2018-09-28T04:43:56.120Z,0
2018-09-28T04:45:06.162Z,0
2018-09-28T04:46:16.114Z,0
2018-09-28T04:47:26.015Z,0
2018-09-28T04:48:35.916Z,0
2018-09-28T04:49:46.082Z,0
2018-09-28T04:50:55.982Z,0
2018-09-28T04:52:05.873Z,4
2018-09-28T04:53:15.492Z,4
2018-09-28T04:54:25.717Z,0
2018-09-28T04:55:35.612Z,4
2018-09-28T04:56:45.543Z,4
2018-09-28T04:57:55.685Z,4
2018-09-28T04:59:05.868Z,8
2018-09-28T05:00:15.489Z,8
2018-09-28T05:01:24.555Z,4
2018-09-28T05:02:34.478Z,12
2018-09-28T05:03:44.650Z,8
2018-09-28T05:04:54.886Z,12
2018-09-28T05:06:05.053Z,16
2018-09-28T05:07:14.724Z,20
2018-09-28T05:08:24.901Z,24
2018-09-28T05:09:34.790Z,36
2018-09-28T05:10:44.953Z,44
2018-09-28T05:11:54.645Z,52
2018-09-28T05:13:04.992Z,56
2018-09-28T05:14:14.926Z,64
2018-09-28T05:15:25.104Z,72
2018-09-28T05:16:35.012Z,80
2018-09-28T05:17:44.633Z,88
2018-09-28T05:18:54.835Z,100
2018-09-28T05:20:04.687Z,112
2018-09-28T05:21:14.307Z,124
2018-09-28T05:22:23.677Z,136
2018-09-28T05:23:33.843Z,152
2018-09-28T05:24:43.734Z,168
2018-09-28T05:25:53.353Z,192
2018-09-28T05:27:03.285Z,212
2018-09-28T05:28:13.219Z,232
2018-09-28T05:29:23.388Z,260
2018-09-28T05:30:33.272Z,288
2018-09-28T05:31:43.628Z,316
2018-09-28T05:32:54.866Z,348
2018-09-28T05:34:04.516Z,396
2018-09-28T05:35:14.133Z,444
2018-09-28T05:36:24.061Z,464
2018-09-28T05:37:33.406Z,468
2018-09-28T05:38:43.296Z,500
2018-09-28T05:39:53.179Z,520
2018-09-28T05:41:02.809Z,512
2018-09-28T05:42:12.948Z,520
2018-09-28T05:43:23.148Z,556
2018-09-28T05:44:32.822Z,608
2018-09-28T05:45:42.924Z,640
2018-09-28T05:46:52.534Z,676
2018-09-28T05:48:02.425Z,732
2018-09-28T05:49:12.689Z,796
2018-09-28T05:50:22.848Z,800
2018-09-28T05:51:33.053Z,812
2018-09-28T05:52:43.183Z,816
2018-09-28T05:53:53.359Z,856
2018-09-28T05:55:03.299Z,876
2018-09-28T05:56:13.195Z,860
2018-09-28T05:57:22.812Z,848
2018-09-28T05:58:32.301Z,860
2018-09-28T05:59:42.284Z,880
2018-09-28T06:00:52.451Z,900
2018-09-28T06:02:02.070Z,996
2018-09-28T06:03:11.996Z,1000
2018-09-28T06:04:22.200Z,1080
2018-09-28T06:05:31.966Z,1176
2018-09-28T06:06:42.347Z,1252
2018-09-28T06:07:52.016Z,1356
2018-09-28T06:09:01.635Z,1484
2018-09-28T06:10:11.259Z,1600
2018-09-28T06:11:21.464Z,1640
2018-09-28T06:12:31.629Z,1564
2018-09-28T06:13:41.517Z,1528
2018-09-28T06:14:51.136Z,1496
2018-09-28T06:16:01.027Z,1348
2018-09-28T06:17:10.917Z,1312
2018-09-28T06:18:21.076Z,1312
2018-09-28T06:19:31.281Z,1492
2018-09-28T06:20:40.356Z,1652
2018-09-28T06:21:50.318Z,1696
2018-09-28T06:22:59.686Z,1848
2018-09-28T06:24:10.078Z,1940
2018-09-28T06:25:19.769Z,2028
2018-09-28T06:26:29.708Z,2120
2018-09-28T06:27:39.368Z,2164
2018-09-28T06:28:49.257Z,2096
2018-09-28T06:29:59.820Z,2120
2018-09-28T06:31:09.526Z,2156
2018-09-28T06:32:19.414Z,2276
2018-09-28T06:33:29.584Z,2404
2018-09-28T06:34:39.490Z,2500
2018-09-28T06:35:50.133Z,2824
2018-09-28T06:37:00.127Z,2748
2018-09-28T06:38:09.771Z,2768
2018-09-28T06:39:19.145Z,2756
2018-09-28T06:40:28.768Z,2752
2018-09-28T06:41:38.473Z,2828
2018-09-28T06:42:47.795Z,2928
2018-09-28T06:43:57.420Z,2892
2018-09-28T06:45:06.783Z,2868
2018-09-28T06:46:16.096Z,2744
2018-09-28T06:47:26.275Z,2720
2018-09-28T06:48:35.954Z,2628
2018-09-28T06:49:46.129Z,2640
2018-09-28T06:50:55.511Z,2584
2018-09-28T06:52:05.713Z,2516
2018-09-28T06:53:15.602Z,2380
2018-09-28T06:54:25.836Z,2284
2018-09-28T06:55:35.769Z,2160
2018-09-28T06:56:45.675Z,2048
2018-09-28T06:57:55.564Z,2000
2018-09-28T06:59:05.462Z,1908
2018-09-28T07:00:15.891Z,1916
2018-09-28T07:01:25.714Z,1956
2018-09-28T07:02:35.336Z,2004
2018-09-28T07:03:44.729Z,2060
2018-09-28T07:04:54.281Z,2052
2018-09-28T07:06:04.811Z,2092
2018-09-28T07:07:14.937Z,2164
2018-09-28T07:08:24.840Z,2184
2018-09-28T07:09:35.077Z,2224
2018-09-28T07:10:44.976Z,2312
2018-09-28T07:11:54.864Z,2448
2018-09-28T07:13:04.764Z,2456
2018-09-28T07:14:14.359Z,2516
2018-09-28T07:15:24.300Z,2468
2018-09-28T07:16:34.763Z,2364
2018-09-28T07:17:44.945Z,2332
2018-09-28T07:18:54.526Z,2372
2018-09-28T07:20:04.456Z,2216
2018-09-28T07:21:13.519Z,2120
2018-09-28T07:22:23.149Z,2056
2018-09-28T07:23:33.351Z,1992
2018-09-28T07:24:43.875Z,1872
2018-09-28T07:25:54.157Z,1852
2018-09-28T07:27:04.061Z,1852
2018-09-28T07:28:13.128Z,1896
2018-09-28T07:29:22.947Z,1964
2018-09-28T07:30:33.137Z,2032
2018-09-28T07:31:42.762Z,2148
2018-09-28T07:32:52.973Z,2300
2018-09-28T07:34:02.598Z,2388
2018-09-28T07:35:12.540Z,2336
2018-09-28T07:36:23.162Z,2268
2018-09-28T07:37:33.595Z,2212
2018-09-28T07:38:43.220Z,2264
2018-09-28T07:39:53.365Z,2280
2018-09-28T07:41:03.554Z,2300
2018-09-28T07:42:13.428Z,2380
2018-09-28T07:43:23.470Z,2588
2018-09-28T07:44:33.666Z,2732
2018-09-28T07:45:43.826Z,2972
2018-09-28T07:46:53.994Z,3260
2018-09-28T07:48:03.857Z,3484
2018-09-28T07:49:13.755Z,3684
2018-09-28T07:50:23.405Z,3856
2018-09-28T07:51:33.026Z,4012
2018-09-28T07:52:42.651Z,4324
2018-09-28T07:53:52.812Z,4844
2018-09-28T07:55:02.435Z,5120
2018-09-28T07:56:11.781Z,4836
2018-09-28T07:57:21.669Z,4872
2018-09-28T07:58:31.578Z,5168
2018-09-28T07:59:41.506Z,5400
2018-09-28T08:00:51.428Z,5608
2018-09-28T08:02:00.528Z,5680
2018-09-28T08:03:10.423Z,6056
2018-09-28T08:04:20.604Z,6480
2018-09-28T08:05:30.766Z,6764
2018-09-28T08:06:40.657Z,6932
2018-09-28T08:07:50.003Z,6828
2018-09-28T08:08:59.869Z,6700
2018-09-28T08:10:09.255Z,6700
2018-09-28T08:11:19.417Z,6752
2018-09-28T08:12:29.574Z,6944
2018-09-28T08:13:39.988Z,7072
2018-09-28T08:14:49.611Z,7108
2018-09-28T08:15:59.507Z,7068
2018-09-28T08:17:08.578Z,7080
2018-09-28T08:18:18.477Z,7220
2018-09-28T08:19:28.100Z,7408
2018-09-28T08:20:37.988Z,7456
2018-09-28T08:21:48.158Z,7368
2018-09-28T08:22:58.339Z,7200
2018-09-28T08:24:08.235Z,6948
2018-09-28T08:25:18.161Z,6480
2018-09-28T08:26:27.793Z,6104
2018-09-28T08:27:37.687Z,5704
2018-09-28T08:28:47.394Z,5176
2018-09-28T08:29:57.561Z,4900
2018-09-28T08:31:07.740Z,5060
2018-09-28T08:32:17.639Z,5000
2018-09-28T08:33:27.823Z,4532
2018-09-28T08:34:37.993Z,4748
2018-09-28T08:35:47.648Z,4560
2018-09-28T08:36:57.773Z,4496
2018-09-28T08:38:07.390Z,4584
2018-09-28T08:39:17.056Z,3988
2018-09-28T08:40:26.953Z,4404
2018-09-28T08:41:36.356Z,4700
2018-09-28T08:42:46.257Z,3700
2018-09-28T08:43:56.459Z,3552
2018-09-28T08:45:06.403Z,3696
2018-09-28T08:46:16.023Z,3844
2018-09-28T08:47:26.192Z,4132
2018-09-28T08:48:36.084Z,4112
2018-09-28T08:49:45.708Z,4364
2018-09-28T08:50:55.898Z,4764
2018-09-28T08:52:05.837Z,5244
2018-09-28T08:53:16.030Z,5520
2018-09-28T08:54:26.212Z,5876
2018-09-28T08:55:35.827Z,6156
2018-09-28T08:56:45.183Z,6424
2018-09-28T08:57:55.362Z,6632
2018-09-28T08:59:04.722Z,6668
2018-09-28T09:00:14.363Z,6392
2018-09-28T09:01:23.747Z,6184
2018-09-28T09:02:33.100Z,5984
2018-09-28T09:03:43.240Z,5848
2018-09-28T09:04:53.141Z,5804
2018-09-28T09:06:03.354Z,5852
2018-09-28T09:07:13.254Z,5908
2018-09-28T09:08:22.879Z,5992
2018-09-28T09:09:32.786Z,6316
2018-09-28T09:10:42.412Z,6432
2018-09-28T09:11:51.805Z,6784
2018-09-28T09:13:01.441Z,6812
2018-09-28T09:14:11.342Z,6992
2018-09-28T09:15:20.698Z,7024
2018-09-28T09:16:30.325Z,7000
2018-09-28T09:17:39.680Z,7188
2018-09-28T09:18:50.142Z,7300
2018-09-28T09:20:00.037Z,7588
2018-09-28T09:21:10.010Z,7708
2018-09-28T09:22:19.918Z,7336
2018-09-28T09:23:30.088Z,6772
2018-09-28T09:24:39.986Z,6264
2018-09-28T09:25:49.881Z,6132
2018-09-28T09:26:59.553Z,5916
2018-09-28T09:28:09.462Z,5560
2018-09-28T09:29:19.087Z,5336
2018-09-28T09:30:29.303Z,5176
2018-09-28T09:31:38.610Z,5148
2018-09-28T09:32:48.543Z,5188
2018-09-28T09:33:58.709Z,5316
2018-09-28T09:35:08.890Z,5300
2018-09-28T09:36:18.786Z,5096
2018-09-28T09:37:28.681Z,5256
2018-09-28T09:38:38.851Z,5536
2018-09-28T09:39:48.483Z,5576
2018-09-28T09:40:57.828Z,5416
2018-09-28T09:42:06.898Z,5280
2018-09-28T09:43:15.974Z,5356
2018-09-28T09:44:25.609Z,5408
2018-09-28T09:45:35.814Z,5196
2018-09-28T09:46:45.757Z,5124
2018-09-28T09:47:55.653Z,5316
2018-09-28T09:49:05.862Z,5704
2018-09-28T09:50:16.027Z,5964
2018-09-28T09:51:25.890Z,6044
2018-09-28T09:52:35.793Z,6140
2018-09-28T09:53:45.447Z,6124
2018-09-28T09:54:55.060Z,6116
2018-09-28T09:56:04.950Z,6164
2018-09-28T09:57:14.850Z,5940
2018-09-28T09:58:24.793Z,5720
2018-09-28T09:59:34.976Z,5556
2018-09-28T10:00:44.599Z,5696
2018-09-28T10:01:54.501Z,5988
2018-09-28T10:03:04.716Z,5924
2018-09-28T10:04:14.894Z,5624
2018-09-28T10:05:25.084Z,5396
2018-09-28T10:06:34.984Z,5436
2018-09-28T10:07:44.879Z,6096
2018-09-28T10:08:54.221Z,7300
2018-09-28T10:10:04.389Z,8536
2018-09-28T10:11:14.238Z,9444
2018-09-28T10:12:24.029Z,9644
2018-09-28T10:13:34.277Z,8660
2018-09-28T10:14:44.171Z,8048
2018-09-28T10:15:53.789Z,7796
2018-09-28T10:17:03.410Z,7680
2018-09-28T10:18:13.088Z,7516
2018-09-28T10:19:23.674Z,7788
2018-09-28T10:20:34.066Z,8136
2018-09-28T10:21:43.689Z,7792
2018-09-28T10:22:53.578Z,7684
2018-09-28T10:24:03.206Z,7404
2018-09-28T10:25:12.595Z,6464
2018-09-28T10:26:22.761Z,5212
2018-09-28T10:27:33.145Z,5268
2018-09-28T10:28:43.985Z,6348
2018-09-28T10:29:54.185Z,7400
2018-09-28T10:31:03.259Z,8352
2018-09-28T10:32:12.881Z,9308
2018-09-28T10:33:22.814Z,9616
2018-09-28T10:34:32.997Z,9128
2018-09-28T10:35:42.596Z,8672
2018-09-28T10:36:51.940Z,7792
2018-09-28T10:38:01.810Z,7680
2018-09-28T10:39:11.479Z,8188
2018-09-28T10:40:22.240Z,7264
2018-09-28T10:41:32.933Z,6400
2018-09-28T10:42:42.554Z,6252
2018-09-28T10:43:52.186Z,5688
2018-09-28T10:45:02.083Z,5756
2018-09-28T10:46:11.713Z,5640
2018-09-28T10:47:21.372Z,5784
2018-09-28T10:48:31.264Z,5780
2018-09-28T10:49:41.165Z,6088
2018-09-28T10:50:51.261Z,6320
2018-09-28T10:52:02.155Z,6052
2018-09-28T10:53:12.873Z,5912
2018-09-28T10:54:23.131Z,5424
2018-09-28T10:55:33.313Z,5048
2018-09-28T10:56:43.234Z,4704
2018-09-28T10:57:53.137Z,5004
2018-09-28T10:59:03.634Z,5360
2018-09-28T11:00:13.846Z,5380
2018-09-28T11:01:24.063Z,5932
2018-09-28T11:02:33.138Z,6568
2018-09-28T11:03:43.308Z,8288
2018-09-28T11:04:53.795Z,7516
2018-09-28T11:06:03.138Z,7592
2018-09-28T11:07:13.031Z,5856
2018-09-28T11:08:23.053Z,6468
2018-09-28T11:09:33.643Z,7296
2018-09-28T11:10:44.231Z,6572
2018-09-28T11:11:54.028Z,5128
2018-09-28T11:13:03.646Z,4916
2018-09-28T11:14:13.555Z,5228
2018-09-28T11:15:24.175Z,6568
2018-09-28T11:16:34.621Z,6980
2018-09-28T11:17:44.242Z,7144
2018-09-28T11:18:54.363Z,6396
2018-09-28T11:20:04.735Z,6220
2018-09-28T11:21:14.821Z,6472
2018-09-28T11:22:24.902Z,6812
2018-09-28T11:23:35.073Z,6900
2018-09-28T11:24:45.250Z,6876
2018-09-28T11:25:54.868Z,6648
2018-09-28T11:27:04.777Z,5644
2018-09-28T11:28:14.750Z,5156
2018-09-28T11:29:24.384Z,4860
2018-09-28T11:30:34.558Z,5164
2018-09-28T11:31:44.455Z,5684
2018-09-28T11:32:54.364Z,5876
2018-09-28T11:34:04.260Z,6144
2018-09-28T11:35:13.814Z,6312
2018-09-28T11:36:23.466Z,6272
2018-09-28T11:37:33.317Z,6196
2018-09-28T11:38:42.976Z,6156
2018-09-28T11:39:53.557Z,6192
2018-09-28T11:41:03.463Z,6468
2018-09-28T11:42:12.811Z,6508
2018-09-28T11:43:23.030Z,6732
2018-09-28T11:44:32.868Z,7352
2018-09-28T11:45:43.407Z,8048
2018-09-28T11:46:53.405Z,9132
2018-09-28T11:48:03.029Z,14172
2018-09-28T11:49:12.870Z,17344
2018-09-28T11:50:22.975Z,29344
2018-09-28T11:51:33.442Z,21088
2018-09-28T11:52:42.794Z,7544
2018-09-28T11:53:52.732Z,5568
2018-09-28T11:55:02.358Z,4928
2018-09-28T11:56:12.010Z,4752
2018-09-28T11:57:21.778Z,4844
2018-09-28T11:58:32.171Z,4600
2018-09-28T11:59:41.931Z,4256
2018-09-28T12:00:51.559Z,3752
2018-09-28T12:02:01.191Z,3684
2018-09-28T12:03:11.559Z,4396
2018-09-28T12:04:21.309Z,9412
2018-09-28T12:05:31.485Z,9796
2018-09-28T12:06:41.646Z,5804
2018-09-28T12:07:51.037Z,8528
2018-09-28T12:09:01.008Z,8608
2018-09-28T12:10:11.248Z,8628
2018-09-28T12:11:21.444Z,6864
2018-09-28T12:12:31.498Z,7224
2018-09-28T12:13:41.918Z,8724
2018-09-28T12:14:51.537Z,6940
2018-09-28T12:16:01.703Z,6648
2018-09-28T12:17:11.649Z,5800
2018-09-28T12:18:22.041Z,5836
2018-09-28T12:19:32.369Z,6304
2018-09-28T12:20:42.537Z,6544
2018-09-28T12:21:52.841Z,7804
2018-09-28T12:23:02.469Z,9540
2018-09-28T12:24:12.597Z,9508
2018-09-28T12:25:22.965Z,9812
2018-09-28T12:26:33.142Z,11704
2018-09-28T12:27:43.149Z,14092
2018-09-28T12:28:53.441Z,13140
2018-09-28T12:30:03.604Z,13736
2018-09-28T12:31:14.011Z,12192
2018-09-28T12:32:23.631Z,10348
2018-09-28T12:33:33.440Z,9348
2018-09-28T12:34:43.313Z,10292
2018-09-28T12:35:53.238Z,10832
2018-09-28T12:37:03.408Z,10176
2018-09-28T12:38:12.645Z,11352
2018-09-28T12:39:23.174Z,11248
2018-09-28T12:40:33.092Z,8296
2018-09-28T12:41:42.753Z,7436
2018-09-28T12:42:53.099Z,8148
2018-09-28T12:44:02.499Z,8568
2018-09-28T12:45:13.166Z,8824
2018-09-28T12:46:22.861Z,8660
2018-09-28T12:47:33.074Z,8252
2018-09-28T12:48:42.615Z,7640
2018-09-28T12:49:52.758Z,7152
2018-09-28T12:51:02.941Z,6464
2018-09-28T12:52:13.144Z,6328
2018-09-28T12:53:23.080Z,7948
2018-09-28T12:54:33.203Z,12436
2018-09-28T12:55:43.121Z,15776
2018-09-28T12:56:52.781Z,17888
2018-09-28T12:58:02.662Z,18080
2018-09-28T12:59:12.290Z,13312
2018-09-28T13:00:22.322Z,9784
2018-09-28T13:01:32.596Z,8832
2018-09-28T13:02:42.818Z,9200
2018-09-28T13:03:52.849Z,9796
2018-09-28T13:05:02.748Z,9900
2018-09-28T13:06:12.479Z,9540
2018-09-28T13:07:22.511Z,9036
2018-09-28T13:08:33.122Z,8772
2018-09-28T13:09:43.369Z,8764
2018-09-28T13:10:53.007Z,9028
2018-09-28T13:12:02.638Z,9804
2018-09-28T13:13:12.269Z,10952
2018-09-28T13:14:22.553Z,12096
2018-09-28T13:15:31.971Z,13108
2018-09-28T13:16:41.860Z,13908
2018-09-28T13:17:51.754Z,15068
2018-09-28T13:19:02.010Z,15676
2018-09-28T13:20:12.096Z,15724
2018-09-28T13:21:21.202Z,15724
2018-09-28T13:22:30.834Z,16168
2018-09-28T13:23:40.465Z,17024
2018-09-28T13:24:50.430Z,18176
2018-09-28T13:26:00.642Z,17568
2018-09-28T13:27:10.261Z,18080
2018-09-28T13:28:19.884Z,14660
2018-09-28T13:29:29.254Z,13136
2018-09-28T13:30:39.601Z,12808
2018-09-28T13:31:50.043Z,12344
2018-09-28T13:33:00.147Z,11540
2018-09-28T13:34:09.762Z,10556
2018-09-28T13:35:19.382Z,9104
2018-09-28T13:36:29.729Z,8160
2018-09-28T13:37:39.988Z,6052
2018-09-28T13:38:49.586Z,5820
2018-09-28T13:39:59.921Z,12400
2018-09-28T13:41:09.545Z,6776
2018-09-28T13:42:19.953Z,6724
2018-09-28T13:43:29.710Z,7408
2018-09-28T13:44:39.813Z,13752
2018-09-28T13:45:49.565Z,10176
2018-09-28T13:46:59.840Z,6364
2018-09-28T13:48:09.513Z,5876
2018-09-28T13:49:19.469Z,7868
2018-09-28T13:50:29.722Z,20608
2018-09-28T13:51:39.321Z,6532
2018-09-28T13:52:49.845Z,5356
2018-09-28T13:53:59.935Z,16544
2018-09-28T13:55:09.844Z,12060
2018-09-28T13:56:20.163Z,13200
2018-09-28T13:57:30.360Z,10580
2018-09-28T13:58:40.431Z,4772
2018-09-28T13:59:50.434Z,5824
2018-09-28T14:01:00.343Z,7060
2018-09-28T14:02:10.039Z,6912
2018-09-28T14:03:20.248Z,5384
2018-09-28T14:04:30.333Z,5972
2018-09-28T14:05:40.351Z,1780
2018-09-28T14:06:50.105Z,19608
2018-09-28T14:07:59.775Z,10564
2018-09-28T14:09:09.119Z,14444
2018-09-28T14:10:19.175Z,10616
2018-09-28T14:11:28.842Z,6852
2018-09-28T14:12:38.320Z,7696
2018-09-28T14:13:48.155Z,21280
2018-09-28T14:14:58.178Z,33024
2018-09-28T14:16:07.553Z,52000
2018-09-28T14:17:17.881Z,60864
2018-09-28T14:18:28.188Z,8412
2018-09-28T14:19:38.179Z,16000
2018-09-28T14:20:48.425Z,13752
2018-09-28T14:21:58.799Z,7716
2018-09-28T14:23:08.756Z,6328
2018-09-28T14:24:19.109Z,8552
2018-09-28T14:25:29.149Z,9944
2018-09-28T14:26:39.271Z,5828
2018-09-28T14:27:49.346Z,6068
2018-09-28T14:29:00.058Z,7400
2018-09-28T14:30:10.050Z,5836
2018-09-28T14:31:19.728Z,5620
2018-09-28T14:32:29.959Z,5656
2018-09-28T14:33:40.197Z,6028
2018-09-28T14:34:50.623Z,6428
2018-09-28T14:36:00.257Z,12560
2018-09-28T14:37:10.185Z,25472
2018-09-28T14:38:20.439Z,20576
2018-09-28T14:39:30.834Z,27936
2018-09-28T14:40:41.289Z,16036
2018-09-28T14:41:51.436Z,8376
2018-09-28T14:43:01.127Z,5232
2018-09-28T14:44:10.820Z,4876
2018-09-28T14:45:20.874Z,5164
2018-09-28T14:46:31.348Z,5100
2018-09-28T14:47:41.380Z,5544
2018-09-28T14:48:52.114Z,5924
2018-09-28T14:50:02.708Z,5868
2018-09-28T14:51:12.623Z,5920
2018-09-28T14:52:23.205Z,5704
2018-09-28T14:53:33.380Z,5580
2018-09-28T14:54:43.261Z,5492
2018-09-28T14:55:53.263Z,5468
2018-09-28T14:57:03.189Z,5576
2018-09-28T14:58:13.275Z,5340
2018-09-28T14:59:23.190Z,5308
2018-09-28T15:00:33.310Z,6256
2018-09-28T15:01:43.094Z,8000
2018-09-28T15:02:53.662Z,5280
2018-09-28T15:04:03.834Z,4988
2018-09-28T15:05:13.785Z,4900
2018-09-28T15:06:23.565Z,7132
2018-09-28T15:07:33.828Z,5572
2018-09-28T15:08:43.682Z,4764
2018-09-28T15:09:53.097Z,4760
2018-09-28T15:11:02.990Z,4556
2018-09-28T15:12:13.340Z,4532
2018-09-28T15:13:23.260Z,4368
2018-09-28T15:14:33.232Z,5000
2018-09-28T15:15:43.477Z,4700
2018-09-28T15:16:53.781Z,5412
2018-09-28T15:18:03.952Z,5196
2018-09-28T15:19:13.668Z,5180
2018-09-28T15:20:23.294Z,5940
2018-09-28T15:21:33.216Z,7596
2018-09-28T15:22:43.185Z,9060
2018-09-28T15:23:53.169Z,9456
2018-09-28T15:25:03.125Z,10068
2018-09-28T15:26:13.016Z,9900
2018-09-28T15:27:22.911Z,9644
2018-09-28T15:28:32.727Z,9708
2018-09-28T15:29:43.195Z,17920
2018-09-28T15:30:53.552Z,10860
2018-09-28T15:32:03.453Z,25088
2018-09-28T15:33:13.084Z,30784
2018-09-28T15:34:22.714Z,21568
2018-09-28T15:35:32.582Z,13876
2018-09-28T15:36:42.474Z,9172
2018-09-28T15:37:52.104Z,10724
2018-09-28T15:39:02.245Z,5884
2018-09-28T15:40:11.598Z,8024
2018-09-28T15:41:21.496Z,5404
2018-09-28T15:42:31.429Z,5624
2018-09-28T15:43:41.325Z,7396
2018-09-28T15:44:51.209Z,16032
2018-09-28T15:46:01.377Z,8764
2018-09-28T15:47:10.989Z,7364
2018-09-28T15:48:20.917Z,4916
2018-09-28T15:49:30.536Z,7924
2018-09-28T15:50:40.400Z,12000
2018-09-28T15:51:50.305Z,23104
2018-09-28T15:52:59.927Z,16992
2018-09-28T15:54:09.822Z,6168
2018-09-28T15:55:19.716Z,5504
2018-09-28T15:56:29.916Z,9108
2018-09-28T15:57:39.877Z,11068
2018-09-28T15:58:49.223Z,7820
2018-09-28T15:59:59.152Z,4484
2018-09-28T16:01:09.278Z,3932